Time;durP1;ratioP1;P1;durP2;ratioP2;P2;SDS_P1;SDS_P2;PMS_P1;PMS_P2;Temp;Humidity;BMP_temperature;BMP_pressure;BME280_temperature;BME280_humidity;BME280_pressure;Samples;Min_cycle;Max_cycle;Signal;HPM_P1;HPM_P2
2020/12/25 00:08:01;;;;;;;16.30;6.80;;;4.60;99.90;;;;;;6767340;88;20185;-75
2020/12/25 00:18:01;;;;;;;12.35;7.05;;;4.60;99.90;;;;;;6753859;88;20212;-75
2020/12/25 00:28:02;;;;;;;18.37;6.72;;;4.60;99.90;;;;;;6755926;87;20196;-74
2020/12/25 00:38:02;;;;;;;13.77;6.68;;;4.60;99.90;;;;;;6750489;87;20192;-74
2020/12/25 00:48:03;;;;;;;17.25;6.93;;;4.60;99.90;;;;;;6752065;88;20272;-74
2020/12/25 00:58:04;;;;;;;14.43;6.30;;;4.50;99.90;;;;;;6752214;88;20206;-74
2020/12/25 01:08:04;;;;;;;11.60;5.90;;;4.60;99.90;;;;;;6748082;87;20210;-74
2020/12/25 01:18:04;;;;;;;11.80;6.45;;;4.70;99.90;;;;;;6748620;88;20230;-74
2020/12/25 01:28:05;;;;;;;14.40;7.20;;;4.60;99.90;;;;;;6748055;88;20694;-74
2020/12/25 01:38:06;;;;;;;13.32;6.80;;;4.70;99.90;;;;;;6750286;87;20217;-73
2020/12/25 01:48:07;;;;;;;15.80;7.65;;;4.80;99.90;;;;;;6749837;88;20694;-74
2020/12/25 01:58:08;;;;;;;16.25;8.02;;;4.80;99.90;;;;;;6752919;87;20184;-74
2020/12/25 02:08:10;;;;;;;12.35;6.80;;;4.80;99.90;;;;;;6747215;87;20291;-74
2020/12/25 02:18:10;;;;;;;10.05;6.50;;;4.90;99.90;;;;;;6747518;88;20224;-74
2020/12/25 02:28:11;;;;;;;13.57;6.55;;;4.80;99.90;;;;;;6747356;88;20312;-73
2020/12/25 02:38:11;;;;;;;12.02;5.87;;;4.70;99.90;;;;;;6741029;88;20682;-73
2020/12/25 02:48:12;;;;;;;13.07;6.12;;;4.60;99.90;;;;;;6740800;88;20199;-76
2020/12/25 02:58:12;;;;;;;12.27;6.70;;;4.60;99.90;;;;;;6747744;88;20378;-74
2020/12/25 03:08:13;;;;;;;14.38;7.37;;;4.50;99.90;;;;;;6749768;88;20181;-74
2020/12/25 03:18:13;;;;;;;14.70;7.22;;;4.50;99.90;;;;;;6746801;88;20192;-74
2020/12/25 03:28:14;;;;;;;10.05;5.18;;;4.50;99.90;;;;;;6744236;88;20320;-74
2020/12/25 03:38:14;;;;;;;11.95;5.53;;;4.50;99.90;;;;;;6739157;87;20204;-74
2020/12/25 03:48:15;;;;;;;10.35;5.50;;;4.40;99.90;;;;;;6755492;88;20628;-73
2020/12/25 03:58:16;;;;;;;12.00;5.90;;;4.30;99.90;;;;;;6747113;87;21054;-74
2020/12/25 04:08:16;;;;;;;10.57;5.93;;;4.30;99.90;;;;;;6749581;88;20489;-73
2020/12/25 04:18:17;;;;;;;9.65;5.95;;;4.30;99.90;;;;;;6755301;88;20221;-75
2020/12/25 04:28:17;;;;;;;10.57;4.80;;;4.20;99.90;;;;;;6758881;87;20324;-74
2020/12/25 04:48:21;;;;;;;11.50;4.65;;;4.10;99.90;;;;;;6754393;87;20222;-75
2020/12/25 04:58:22;;;;;;;8.03;3.67;;;3.90;99.90;;;;;;6783465;87;20216;-75
2020/12/25 05:08:22;;;;;;;8.05;3.92;;;4.00;99.90;;;;;;6783788;87;20522;-75
2020/12/25 05:18:23;;;;;;;6.45;3.37;;;4.00;99.90;;;;;;6788160;87;20171;-75
2020/12/25 05:28:27;;;;;;;7.03;2.83;;;4.00;99.90;;;;;;6786020;87;20696;-75
2020/12/25 05:38:27;;;;;;;9.50;2.60;;;4.00;99.90;;;;;;6778629;87;20670;-75
2020/12/25 05:48:28;;;;;;;8.20;2.65;;;4.00;99.90;;;;;;6780909;87;20197;-75
2020/12/25 05:58:34;;;;;;;7.80;2.70;;;3.90;99.90;;;;;;6777780;87;20743;-75
2020/12/25 06:08:36;;;;;;;7.97;3.30;;;3.70;99.90;;;;;;6778381;87;20495;-74
2020/12/25 06:18:48;;;;;;;11.25;3.47;;;3.70;99.90;;;;;;6780874;87;20221;-74
2020/12/25 06:28:48;;;;;;;8.73;3.37;;;3.60;99.90;;;;;;6771003;87;20379;-73
2020/12/25 06:38:49;;;;;;;9.30;3.72;;;3.30;99.90;;;;;;6778729;87;20255;-74
2020/12/25 06:48:50;;;;;;;13.13;4.55;;;3.10;99.90;;;;;;6776501;87;20684;-74
2020/12/25 06:58:53;;;;;;;19.23;4.70;;;3.00;99.90;;;;;;6782324;87;20244;-74
2020/12/25 07:08:54;;;;;;;12.32;4.60;;;3.00;99.90;;;;;;6785866;87;20632;-74
2020/12/25 07:18:54;;;;;;;12.65;4.68;;;2.90;99.90;;;;;;6779769;87;20207;-74
2020/12/25 07:28:57;;;;;;;14.02;5.10;;;2.70;99.90;;;;;;6773589;87;20179;-74
2020/12/25 07:39:04;;;;;;;15.20;5.53;;;2.60;99.90;;;;;;6776952;87;20626;-74
2020/12/25 07:49:07;;;;;;;21.55;6.25;;;2.50;99.90;;;;;;6776457;87;20203;-74
2020/12/25 07:59:07;;;;;;;13.62;5.95;;;2.50;99.90;;;;;;6775764;87;20250;-74
2020/12/25 08:09:14;;;;;;;21.70;6.70;;;2.70;99.90;;;;;;6787112;87;20179;-74
2020/12/25 08:19:17;;;;;;;;;;;3.10;99.90;;;;;;6787797;87;20263;-74
2020/12/25 08:29:17;;;;;;;13.02;5.72;;;3.20;99.90;;;;;;6780962;87;20058;-74
2020/12/25 08:39:28;;;;;;;17.65;5.75;;;3.50;99.90;;;;;;6781307;87;20225;-76
2020/12/25 08:49:29;;;;;;;16.02;5.05;;;3.70;99.90;;;;;;6778022;87;20530;-74
2020/12/25 08:59:29;;;;;;;20.60;6.70;;;3.70;99.90;;;;;;6782281;87;20651;-76
2020/12/25 09:09:30;;;;;;;15.45;6.03;;;3.50;99.90;;;;;;6784887;87;21071;-75
2020/12/25 09:19:30;;;;;;;18.52;7.03;;;3.40;99.90;;;;;;6788705;87;20291;-74
2020/12/25 09:29:31;;;;;;;17.65;6.80;;;3.00;99.90;;;;;;6791399;87;20210;-74
2020/12/25 09:39:31;;;;;;;18.37;7.07;;;2.90;99.90;;;;;;6775568;87;20310;-74
2020/12/25 09:49:32;;;;;;;16.35;6.68;;;3.10;99.90;;;;;;6780213;87;20222;-75
2020/12/25 09:59:33;;;;;;;16.77;5.87;;;3.10;99.90;;;;;;6783732;87;20216;-76
2020/12/25 10:09:33;;;;;;;13.90;5.72;;;3.20;99.90;;;;;;6786929;87;20299;-75
2020/12/25 10:19:34;;;;;;;11.18;4.95;;;3.40;99.90;;;;;;6777789;87;20288;-75
2020/12/25 10:29:34;;;;;;;18.43;5.17;;;3.50;99.90;;;;;;6784072;87;20199;-75
2020/12/25 10:39:37;;;;;;;11.55;4.85;;;3.60;99.90;;;;;;6783870;87;20639;-75
2020/12/25 10:49:38;;;;;;;14.60;6.45;;;3.70;99.90;;;;;;6783243;87;20190;-74
2020/12/25 10:59:39;;;;;;;15.07;7.18;;;3.80;99.90;;;;;;6773467;87;20901;-76
2020/12/25 11:09:40;;;;;;;18.02;6.37;;;3.90;99.90;;;;;;6772964;87;20662;-74
2020/12/25 11:19:42;;;;;;;13.52;7.00;;;4.20;99.90;;;;;;6785351;87;20635;-74
2020/12/25 11:29:42;;;;;;;22.13;9.95;;;4.50;99.90;;;;;;6778918;87;20220;-74
2020/12/25 11:39:43;;;;;;;27.42;10.75;;;4.50;99.90;;;;;;6777894;87;20179;-74
2020/12/25 11:49:43;;;;;;;21.48;10.32;;;4.70;99.90;;;;;;6780666;87;20231;-75
2020/12/25 11:59:44;;;;;;;24.02;10.38;;;4.60;99.90;;;;;;6781150;87;20626;-74
2020/12/25 12:09:44;;;;;;;17.60;9.05;;;4.50;99.90;;;;;;6778599;87;20216;-75
2020/12/25 12:19:45;;;;;;;21.02;8.55;;;4.70;99.90;;;;;;6779014;87;20202;-74
2020/12/25 12:29:45;;;;;;;19.67;9.00;;;4.80;99.90;;;;;;6781304;87;20616;-74
2020/12/25 12:39:46;;;;;;;18.75;9.00;;;4.60;99.90;;;;;;6775136;87;20215;-74
2020/12/25 12:49:46;;;;;;;18.52;8.98;;;4.60;99.90;;;;;;6786525;87;20372;-74
2020/12/25 12:59:47;;;;;;;12.85;6.97;;;4.80;99.90;;;;;;6786319;87;20529;-73
2020/12/25 13:09:47;;;;;;;12.27;5.47;;;4.80;99.90;;;;;;6780642;87;20572;-75
2020/12/25 13:19:48;;;;;;;7.22;3.70;;;4.70;99.90;;;;;;6789994;87;20654;-74
2020/12/25 13:29:48;;;;;;;6.28;2.40;;;4.80;99.90;;;;;;6779748;87;20214;-75
2020/12/25 13:39:49;;;;;;;5.18;1.17;;;5.00;99.90;;;;;;6782100;87;20229;-76
2020/12/25 13:49:49;;;;;;;5.50;1.12;;;4.90;99.90;;;;;;6789947;87;20191;-74
2020/12/25 13:59:50;;;;;;;4.72;1.52;;;4.80;99.90;;;;;;6780954;87;20198;-75
2020/12/25 14:09:51;;;;;;;6.68;2.30;;;4.80;99.90;;;;;;6797426;87;20183;-76
2020/12/25 14:19:51;;;;;;;8.35;2.70;;;5.00;99.90;;;;;;6788196;87;20274;-74
2020/12/25 14:29:52;;;;;;;9.73;3.08;;;5.00;99.90;;;;;;6786663;87;20205;-75
2020/12/25 14:39:52;;;;;;;10.45;2.60;;;4.90;99.90;;;;;;6781695;87;20247;-75
2020/12/25 14:49:53;;;;;;;8.77;2.45;;;4.70;99.90;;;;;;6788756;87;20824;-76
2020/12/25 14:59:54;;;;;;;7.90;3.75;;;4.60;99.90;;;;;;6780393;87;20694;-75
2020/12/25 15:09:56;;;;;;;14.38;4.32;;;4.40;99.90;;;;;;6771459;87;20198;-74
2020/12/25 15:19:57;;;;;;;9.70;4.50;;;4.30;99.90;;;;;;6781439;87;21106;-75
2020/12/25 15:29:57;;;;;;;9.02;3.25;;;4.40;99.90;;;;;;6785919;87;20324;-75
2020/12/25 15:39:58;;;;;;;10.43;2.75;;;4.40;99.90;;;;;;6779997;87;20196;-75
2020/12/25 15:49:58;;;;;;;7.05;1.90;;;4.10;99.90;;;;;;6783409;87;20191;-75
2020/12/25 15:59:59;;;;;;;10.07;1.90;;;4.20;99.90;;;;;;6776503;87;20199;-76
2020/12/25 16:09:59;;;;;;;8.35;1.62;;;4.10;99.90;;;;;;6779567;87;20254;-76
2020/12/25 16:20:00;;;;;;;7.43;1.62;;;4.20;99.90;;;;;;6776441;87;20322;-76
2020/12/25 16:30:01;;;;;;;5.72;2.40;;;4.20;99.90;;;;;;6771287;87;20687;-76
2020/12/25 16:40:03;;;;;;;6.95;1.45;;;4.10;99.90;;;;;;6778306;87;20341;-76
2020/12/25 16:50:05;;;;;;;5.87;1.70;;;4.20;99.90;;;;;;6780423;87;20191;-76
2020/12/25 17:00:06;;;;;;;8.93;1.65;;;4.20;99.90;;;;;;6788379;87;20187;-76
2020/12/25 17:10:06;;;;;;;5.68;1.92;;;4.30;99.90;;;;;;6782102;87;20262;-76
2020/12/25 17:20:07;;;;;;;7.53;2.03;;;4.30;99.90;;;;;;6786322;87;20535;-75
2020/12/25 17:30:08;;;;;;;9.32;2.05;;;4.30;99.90;;;;;;6786928;87;20195;-75
2020/12/25 17:40:09;;;;;;;7.37;2.00;;;4.30;99.90;;;;;;6787742;87;21049;-76
2020/12/25 17:50:09;;;;;;;8.50;2.15;;;4.30;99.90;;;;;;6786085;87;20255;-76
2020/12/25 18:00:10;;;;;;;7.55;2.60;;;4.20;99.90;;;;;;6783580;87;20306;-76
2020/12/25 18:10:11;;;;;;;10.13;2.58;;;4.10;99.90;;;;;;6781173;87;20276;-75
2020/12/25 18:20:11;;;;;;;9.73;2.10;;;4.00;99.90;;;;;;6778367;87;20188;-76
2020/12/25 18:30:12;;;;;;;8.75;2.62;;;4.10;99.90;;;;;;6783526;87;20240;-75
2020/12/25 18:40:12;;;;;;;13.43;2.97;;;3.90;99.90;;;;;;6778591;87;20228;-76
2020/12/25 18:50:13;;;;;;;6.97;2.60;;;4.00;99.90;;;;;;6779132;87;20700;-76
2020/12/25 19:00:14;;;;;;;11.05;2.70;;;3.90;99.90;;;;;;6781677;87;20200;-76
2020/12/25 19:10:15;;;;;;;6.53;2.90;;;3.80;99.90;;;;;;6773768;87;20213;-75
2020/12/25 19:20:15;;;;;;;7.15;2.62;;;3.70;99.90;;;;;;6792964;87;20661;-75
2020/12/25 19:30:16;;;;;;;11.52;3.30;;;3.70;99.90;;;;;;6785189;87;20643;-76
2020/12/25 19:40:16;;;;;;;8.90;3.22;;;3.60;99.90;;;;;;6791491;87;20199;-76
2020/12/25 19:50:18;;;;;;;8.23;3.20;;;3.50;99.90;;;;;;6783762;87;20192;-76
2020/12/25 20:00:19;;;;;;;8.90;3.00;;;3.40;99.90;;;;;;6791851;87;20234;-76
2020/12/25 20:10:19;;;;;;;8.57;3.20;;;3.30;99.90;;;;;;6785344;87;20808;-76
2020/12/25 20:20:21;;;;;;;8.55;3.05;;;3.20;99.90;;;;;;6781606;87;21078;-76
2020/12/25 20:30:21;;;;;;;8.25;3.05;;;3.30;99.90;;;;;;6782349;87;20183;-76
2020/12/25 20:40:22;;;;;;;12.65;3.28;;;3.30;99.90;;;;;;6784227;87;20566;-76
2020/12/25 20:50:23;;;;;;;11.12;2.90;;;3.20;99.90;;;;;;6774947;87;22109;-76
2020/12/25 21:00:23;;;;;;;15.02;2.90;;;3.10;99.90;;;;;;6788336;87;20606;-76
2020/12/25 21:10:24;;;;;;;9.75;2.55;;;3.10;99.90;;;;;;6780937;87;20244;-75
2020/12/25 21:20:24;;;;;;;12.85;3.37;;;3.20;99.90;;;;;;6776149;87;20219;-75
2020/12/25 21:30:25;;;;;;;8.38;2.70;;;3.20;99.90;;;;;;6785359;87;20189;-75
2020/12/25 21:40:26;;;;;;;7.75;2.72;;;3.40;99.90;;;;;;6792089;87;20663;-75
2020/12/25 21:50:26;;;;;;;7.97;2.50;;;3.30;99.90;;;;;;6788334;87;20580;-74
2020/12/25 22:00:27;;;;;;;12.70;3.28;;;3.20;99.90;;;;;;6786450;87;20623;-74
2020/12/25 22:10:27;;;;;;;8.98;3.00;;;3.40;99.90;;;;;;6783209;87;20195;-75
2020/12/25 22:20:28;;;;;;;13.18;3.70;;;3.20;99.90;;;;;;6786519;87;20191;-75
2020/12/25 22:30:28;;;;;;;13.48;4.07;;;3.30;99.90;;;;;;6787151;87;20206;-74
2020/12/25 22:40:29;;;;;;;8.50;3.42;;;3.50;99.90;;;;;;6786386;77;20302;-72
2020/12/25 22:50:29;;;;;;;9.63;3.62;;;3.50;99.90;;;;;;6737806;87;20567;-72
2020/12/25 23:00:30;;;;;;;13.02;3.62;;;3.40;99.90;;;;;;6744876;88;20180;-72
2020/12/25 23:10:30;;;;;;;12.27;3.83;;;3.40;99.90;;;;;;6742978;88;20240;-72
2020/12/25 23:20:31;;;;;;;10.23;4.20;;;3.40;99.90;;;;;;6744118;88;20262;-72
2020/12/25 23:30:31;;;;;;;10.63;4.68;;;3.40;99.90;;;;;;6746499;88;20196;-72
2020/12/25 23:40:32;;;;;;;13.13;5.12;;;3.30;99.90;;;;;;6743024;88;20319;-72
2020/12/25 23:50:32;;;;;;;10.88;5.35;;;3.20;99.90;;;;;;6745225;88;20184;-73
